Time;durP1;ratioP1;P1;durP2;ratioP2;P2;SDS_P1;SDS_P2;PMS_P1;PMS_P2;Temp;Humidity;BMP_temperature;BMP_pressure;BME280_temperature;BME280_humidity;BME280_pressure;Samples;Min_cycle;Max_cycle;Signal;HPM_P1;HPM_P2
2022/09/29 05:50:16;;;;;;;4.95;3.62;;;;;;;10.23;97.28;96870.59;1720640;81;21021;-55
2022/09/29 05:52:48;;;;;;;7.17;3.95;;;;;;;10.25;97.42;96871.86;1719369;81;22097;-57
2022/09/29 05:55:12;;;;;;;4.87;3.55;;;;;;;10.28;97.64;96876.59;1719328;81;21021;-54
2022/09/29 05:57:39;;;;;;;8.30;4.40;;;;;;;10.32;97.89;96879.41;1714287;81;21133;-54
2022/09/29 06:00:08;;;;;;;5.12;3.67;;;;;;;10.35;98.16;96878.00;1707701;82;21164;-56
2022/09/29 06:02:40;;;;;;;6.72;3.62;;;;;;;10.38;98.45;96883.52;1709377;83;21153;-56
2022/09/29 06:05:08;;;;;;;5.75;3.30;;;;;;;10.43;98.77;96875.34;1710066;82;21527;-56
2022/09/29 06:07:36;;;;;;;4.55;3.40;;;;;;;10.47;98.93;96871.46;1713306;82;20974;-56
2022/09/29 06:10:03;;;;;;;5.83;3.33;;;;;;;10.51;99.10;96875.87;1714932;81;21105;-55
2022/09/29 06:12:35;;;;;;;6.60;3.83;;;;;;;10.57;99.33;96879.18;1714321;83;21101;-55
2022/09/29 06:15:10;;;;;;;4.03;3.00;;;;;;;10.65;99.45;96881.84;1713366;81;21145;-62
2022/09/29 06:17:36;;;;;;;4.25;3.30;;;;;;;10.69;99.46;96876.08;1709223;81;21389;-54
2022/09/29 06:20:11;;;;;;;5.78;3.80;;;;;;;10.74;99.44;96875.91;1709731;81;21081;-58
2022/09/29 06:22:34;;;;;;;5.72;4.20;;;;;;;10.76;99.51;96875.04;1724025;80;21264;-59
2022/09/29 06:25:02;;;;;;;7.37;3.72;;;;;;;10.83;99.56;96873.24;1710885;81;21007;-60
2022/09/29 06:27:30;;;;;;;4.05;3.40;;;;;;;10.92;99.57;96873.45;1726699;80;22149;-58
2022/09/29 06:29:57;;;;;;;6.45;4.40;;;;;;;11.05;99.70;96864.19;1723563;80;21191;-56
2022/09/29 06:32:24;;;;;;;6.47;4.58;;;;;;;11.21;99.67;96859.90;1728404;80;21115;-56
2022/09/29 06:37:39;;;;;;;10.30;5.12;;;;;;;11.50;99.33;96859.37;1717291;81;21164;-58
2022/09/29 06:40:07;;;;;;;6.90;3.92;;;;;;;11.62;99.07;96862.70;1712409;81;21205;-59
2022/09/29 06:42:35;;;;;;;6.17;3.45;;;;;;;11.71;98.94;96863.47;1692296;81;21069;-58
2022/09/29 06:45:03;;;;;;;8.58;3.92;;;;;;;11.81;98.41;96861.77;1716330;81;20987;-58
2022/09/29 06:47:29;;;;;;;5.97;3.65;;;;;;;11.86;98.02;96865.60;1695167;81;21381;-58
2022/09/29 06:49:58;;;;;;;5.22;3.52;;;;;;;11.93;97.86;96863.73;1685744;83;21540;-57
2022/09/29 06:52:30;;;;;;;4.53;3.50;;;;;;;11.97;97.67;96866.78;1725425;80;21563;-56
2022/09/29 06:55:16;;;;;;;6.08;3.25;;;;;;;12.06;97.67;96864.83;1726674;80;21663;-56
2022/09/29 06:57:52;;;;;;;5.62;3.40;;;;;;;12.18;97.60;96869.48;1747263;80;21112;-55
2022/09/29 07:00:19;;;;;;;7.60;3.50;;;;;;;12.25;97.24;96866.51;1742788;80;20993;-56
2022/09/29 07:02:46;;;;;;;9.68;3.40;;;;;;;12.30;97.17;96870.34;1717446;81;20985;-56
2022/09/29 07:05:13;;;;;;;6.00;3.87;;;;;;;12.37;96.96;96865.78;1705337;81;21065;-56
2022/09/29 07:07:42;;;;;;;6.58;3.62;;;;;;;12.42;96.90;96874.98;1696746;81;21093;-56
2022/09/29 07:10:09;;;;;;;4.08;3.00;;;;;;;12.46;96.94;96871.11;1690686;83;20859;-56
2022/09/29 07:12:45;;;;;;;6.05;3.37;;;;;;;12.49;97.07;96875.25;1688939;83;21010;-57
2022/09/29 07:15:30;;;;;;;5.80;3.20;;;;;;;12.48;97.14;96878.27;1706763;80;21512;-57
2022/09/29 07:18:03;;;;;;;6.90;3.58;;;;;;;12.53;97.35;96887.48;1710802;82;20986;-56
2022/09/29 07:20:32;;;;;;;7.67;3.20;;;;;;;12.58;97.53;96884.56;1713996;81;21065;-59
2022/09/29 07:23:13;;;;;;;3.37;2.85;;;;;;;12.62;97.38;96883.60;1712242;81;20942;-61
2022/09/29 07:25:41;;;;;;;8.38;4.22;;;;;;;12.67;97.15;96882.61;1695294;81;20982;-61
2022/09/29 07:28:08;;;;;;;9.13;5.17;;;;;;;12.74;97.17;96882.86;1688392;83;21464;-57
2022/09/29 07:30:36;;;;;;;9.10;4.20;;;;;;;12.80;97.28;96880.98;1702129;81;21032;-57
2022/09/29 07:33:03;;;;;;;6.08;3.60;;;;;;;12.89;97.25;96878.20;1712769;81;21818;-58
2022/09/29 07:35:37;;;;;;;10.30;5.60;;;;;;;12.96;96.89;96873.06;1691346;83;21013;-57
2022/09/29 07:38:04;;;;;;;5.87;3.93;;;;;;;13.04;96.51;96877.58;1689091;83;20990;-62
2022/09/29 07:40:32;;;;;;;8.45;6.20;;;;;;;13.11;96.14;96880.55;1711999;81;20898;-58
2022/09/29 07:42:58;;;;;;;8.88;4.70;;;;;;;13.17;95.78;96881.09;1720011;81;21469;-56
2022/09/29 07:45:25;;;;;;;11.20;4.70;;;;;;;13.24;95.43;96882.13;1713635;81;21103;-61
2022/09/29 07:47:52;;;;;;;9.43;5.33;;;;;;;13.29;95.16;96885.16;1717703;81;20930;-59
2022/09/29 07:50:20;;;;;;;11.25;6.05;;;;;;;13.30;94.99;96882.70;1701226;81;20911;-61
2022/09/29 07:52:53;;;;;;;8.35;5.60;;;;;;;13.33;94.80;96882.81;1690721;83;21548;-58
2022/09/29 07:55:33;;;;;;;7.90;5.00;;;;;;;13.39;94.34;96877.45;1689006;83;21049;-57
2022/09/29 07:58:19;;;;;;;5.27;4.37;;;;;;;13.41;93.92;96874.42;1710339;81;20934;-57
2022/09/29 08:00:55;;;;;;;8.88;3.80;;;;;;;13.42;94.01;96874.11;1712272;81;21101;-57
2022/09/29 08:03:22;;;;;;;11.73;4.75;;;;;;;13.47;93.89;96864.45;1715404;81;20855;-63
2022/09/29 08:05:49;;;;;;;8.98;4.30;;;;;;;13.55;93.91;96864.91;1689539;83;20898;-61
2022/09/29 08:08:16;;;;;;;5.17;3.90;;;;;;;13.61;93.91;96856.06;1709739;81;20949;-63
2022/09/29 08:10:43;;;;;;;6.90;3.08;;;;;;;13.65;93.59;96860.98;1718866;81;21280;-58
2022/09/29 08:13:20;;;;;;;6.58;4.03;;;;;;;13.67;93.15;96860.87;1731105;79;21504;-56
2022/09/29 08:15:56;;;;;;;7.65;4.50;;;;;;;13.68;93.17;96867.81;1727512;81;21076;-57
2022/09/29 08:18:28;;;;;;;6.33;3.92;;;;;;;13.69;93.18;96876.13;1736415;80;21151;-56
2022/09/29 08:21:02;;;;;;;5.08;3.60;;;;;;;13.73;92.97;96872.98;1737684;80;21024;-56
2022/09/29 08:23:39;;;;;;;5.62;3.70;;;;;;;13.76;92.41;96867.48;1734296;80;21017;-56
2022/09/29 08:26:13;;;;;;;7.12;3.58;;;;;;;13.76;91.92;96860.75;1743072;80;20970;-56
2022/09/29 08:28:55;;;;;;;9.40;5.08;;;;;;;13.78;91.64;96864.47;1725322;81;20907;-56
2022/09/29 08:31:24;;;;;;;6.33;4.17;;;;;;;13.81;91.47;96871.85;1696713;81;20906;-58
2022/09/29 08:33:51;;;;;;;5.28;3.80;;;;;;;13.84;91.38;96876.56;1700976;83;21122;-57
2022/09/29 08:36:19;;;;;;;6.72;4.05;;;;;;;13.87;91.30;96875.91;1714621;81;21109;-59
2022/09/29 08:38:52;;;;;;;6.65;3.15;;;;;;;13.91;91.22;96872.75;1715325;81;21574;-58
2022/09/29 08:41:53;;;;;;;7.42;3.80;;;;;;;13.94;91.17;96864.00;1712481;82;21038;-59
2022/09/29 08:44:43;;;;;;;5.20;3.47;;;;;;;14.00;91.15;96866.67;1695477;81;21065;-56
2022/09/29 08:47:31;;;;;;;8.70;3.95;;;;;;;14.08;91.00;96867.92;1722781;81;21064;-58
2022/09/29 08:50:01;;;;;;;7.62;4.00;;;;;;;14.16;91.05;96868.89;1724501;81;21106;-57
2022/09/29 08:52:34;;;;;;;8.65;5.28;;;;;;;14.23;90.83;96866.41;1717697;81;21049;-56
2022/09/29 08:55:22;;;;;;;6.50;4.67;;;;;;;14.28;90.66;96866.17;1739890;79;20989;-57
2022/09/29 08:57:58;;;;;;;8.13;5.22;;;;;;;14.33;90.87;96861.93;1718196;81;21049;-57
2022/09/29 09:00:39;;;;;;;10.32;7.42;;;;;;;14.45;90.60;96868.63;1718483;81;20981;-59
2022/09/29 09:03:56;;;;;;;6.22;3.90;;;;;;;14.54;90.61;96863.88;1717057;81;22457;-58
2022/09/29 09:06:59;;;;;;;6.80;4.17;;;;;;;14.65;90.60;96861.50;1720624;81;21037;-55
2022/09/29 09:09:55;;;;;;;7.35;3.77;;;;;;;14.80;90.69;96858.05;1718145;81;21133;-56
2022/09/29 09:12:25;;;;;;;;;;;;;;;14.88;90.12;96853.08;1721665;81;21151;-58
2022/09/29 09:15:11;;;;;;;8.88;4.95;;;;;;;14.97;89.97;96856.41;1716679;81;20205;-57
2022/09/29 09:18:21;;;;;;;3.72;3.25;;;;;;;15.05;89.27;96850.84;1715815;81;21284;-55
2022/09/29 09:21:09;;;;;;;5.80;3.50;;;;;;;15.17;88.54;96850.56;1720953;81;21064;-57
2022/09/29 09:23:54;;;;;;;6.35;3.37;;;;;;;15.33;87.46;96847.31;1720986;81;20953;-58
2022/09/29 09:26:35;;;;;;;6.22;3.75;;;;;;;15.50;86.80;96840.22;1719250;81;21013;-59
2022/09/29 09:29:19;;;;;;;6.15;3.70;;;;;;;15.68;86.35;96833.35;1716423;81;20986;-56
2022/09/29 09:31:57;;;;;;;6.00;3.90;;;;;;;15.86;84.81;96834.53;1721625;81;21291;-57
2022/09/29 09:34:41;;;;;;;6.30;4.00;;;;;;;16.05;84.15;96844.59;1721943;81;20902;-56
2022/09/29 09:37:24;;;;;;;5.35;3.50;;;;;;;16.19;83.89;96840.28;1719291;80;20895;-57
2022/09/29 09:40:07;;;;;;;5.30;3.35;;;;;;;16.32;82.80;96833.60;1714293;83;21529;-56
2022/09/29 09:42:37;;;;;;;3.72;3.00;;;;;;;16.38;81.51;96837.61;1716629;83;20951;-57
2022/09/29 09:45:13;;;;;;;5.70;3.20;;;;;;;16.40;80.98;96838.03;1717997;83;22144;-56
2022/09/29 09:47:44;;;;;;;4.42;3.20;;;;;;;16.45;80.95;96841.02;1715636;83;21473;-55
2022/09/29 09:50:19;;;;;;;5.90;3.10;;;;;;;16.53;81.09;96839.27;1720297;83;21027;-57
2022/09/29 09:52:54;;;;;;;;;;;;;;;16.64;81.01;96836.20;1715651;82;21077;-56
2022/09/29 09:55:23;;;;;;;4.10;3.10;;;;;;;16.72;80.23;96834.62;1710795;82;20184;-57
2022/09/29 09:58:16;;;;;;;6.00;2.80;;;;;;;16.80;79.58;96836.90;1687601;83;21093;-59
2022/09/29 10:00:53;;;;;;;7.10;2.80;;;;;;;16.86;78.11;96838.19;1702726;82;21086;-60
2022/09/29 10:03:20;;;;;;;5.97;3.05;;;;;;;16.94;77.59;96838.52;1704847;82;21118;-58
2022/09/29 10:05:47;;;;;;;7.15;3.47;;;;;;;17.01;77.58;96834.59;1706900;81;21082;-57
2022/09/29 10:08:26;;;;;;;9.05;3.47;;;;;;;17.12;77.45;96836.94;1705048;82;21497;-59
2022/09/29 10:10:53;;;;;;;3.80;3.30;;;;;;;17.27;77.91;96842.00;1655965;84;21231;-59
2022/09/29 10:13:23;;;;;;;4.72;3.10;;;;;;;17.42;77.06;96837.84;1632618;87;20896;-58
2022/09/29 10:16:14;;;;;;;6.55;3.00;;;;;;;17.52;75.37;96839.95;1666806;83;21063;-60
2022/09/29 10:18:51;;;;;;;3.95;2.55;;;;;;;17.60;74.90;96851.11;1699964;83;21056;-58
2022/09/29 10:21:31;;;;;;;5.28;2.90;;;;;;;17.67;73.43;96845.81;1711848;82;21058;-57
2022/09/29 10:24:00;;;;;;;4.25;2.80;;;;;;;17.78;73.53;96849.45;1725050;80;21361;-59
2022/09/29 10:26:44;;;;;;;4.17;2.60;;;;;;;17.89;73.35;96848.84;1748808;80;21504;-59
2022/09/29 10:29:32;;;;;;;6.17;2.80;;;;;;;17.97;72.18;96845.86;1749488;81;20982;-59
2022/09/29 10:32:06;;;;;;;3.95;2.10;;;;;;;18.02;68.93;96844.77;1745689;81;21053;-58
2022/09/29 10:34:36;;;;;;;3.37;1.80;;;;;;;18.05;68.37;96848.11;1749633;80;21098;-57
2022/09/29 10:37:06;;;;;;;2.55;2.20;;;;;;;18.04;67.36;96847.92;1748717;80;21825;-56
2022/09/29 10:39:42;;;;;;;3.27;2.12;;;;;;;18.03;67.03;96851.77;1749393;80;21603;-58
2022/09/29 10:42:35;;;;;;;2.72;1.50;;;;;;;18.06;66.05;96851.04;1748198;80;21073;-56
2022/09/29 10:45:24;;;;;;;3.20;1.57;;;;;;;18.11;64.87;96843.36;1722374;81;21070;-57
2022/09/29 10:48:03;;;;;;;2.95;1.30;;;;;;;18.19;64.47;96845.03;1725110;81;21066;-56
2022/09/29 10:50:38;;;;;;;3.35;1.40;;;;;;;18.28;64.47;96841.47;1720088;81;21650;-57
2022/09/29 10:53:38;;;;;;;2.25;1.50;;;;;;;18.37;63.50;96852.06;1720218;81;20984;-59
2022/09/29 10:56:28;;;;;;;6.00;1.82;;;;;;;18.37;63.49;96843.92;1713228;81;20985;-58
2022/09/29 10:59:10;;;;;;;4.12;1.40;;;;;;;18.41;63.65;96835.25;1719927;81;21091;-59
2022/09/29 11:01:57;;;;;;;2.45;1.30;;;;;;;18.51;63.45;96831.94;1720196;81;21008;-57
2022/09/29 11:04:31;;;;;;;3.05;1.85;;;;;;;18.82;62.87;96830.14;1718734;81;21235;-59
2022/09/29 11:07:13;;;;;;;3.45;1.65;;;;;;;19.24;62.06;96820.31;1693735;81;21041;-58
2022/09/29 11:09:53;;;;;;;3.95;1.85;;;;;;;19.60;61.30;96826.84;1693053;83;21571;-57
2022/09/29 11:12:48;;;;;;;4.72;1.80;;;;;;;19.89;58.67;96825.91;1712460;81;21019;-56
2022/09/29 11:15:31;;;;;;;5.42;1.62;;;;;;;19.99;58.12;96818.41;1716823;81;20914;-57
2022/09/29 11:17:58;;;;;;;;;;;;;;;19.95;56.77;96818.19;1725954;79;21815;-57
2022/09/29 11:20:29;;;;;;;2.58;1.32;;;;;;;19.90;56.39;96821.25;1711965;81;20099;-57
2022/09/29 11:23:04;;;;;;;2.42;1.40;;;;;;;19.88;55.81;96831.13;1705727;81;21438;-57
2022/09/29 11:25:53;;;;;;;3.15;1.60;;;;;;;20.03;56.48;96825.98;1707050;80;21048;-58
2022/09/29 11:28:45;;;;;;;3.65;1.75;;;;;;;20.32;56.62;96831.83;1701444;81;21114;-57
2022/09/29 11:31:43;;;;;;;3.90;1.92;;;;;;;20.64;54.72;96835.25;1720146;80;21587;-57
2022/09/29 11:34:49;;;;;;;5.15;1.80;;;;;;;20.69;53.79;96824.01;1720407;81;21088;-60
2022/09/29 11:37:25;;;;;;;;;;;;;;;20.53;53.29;96832.50;1725686;80;21086;-54
2022/09/29 11:40:25;;;;;;;3.08;1.80;;;;;;;20.20;53.54;96836.20;1718006;81;20115;-56
2022/09/29 11:43:44;;;;;;;4.72;1.90;;;;;;;19.91;54.56;96841.24;1715428;81;21040;-55
2022/09/29 11:46:39;;;;;;;3.05;2.05;;;;;;;19.68;55.25;96848.84;1716370;80;21149;-56
2022/09/29 11:49:20;;;;;;;5.90;2.60;;;;;;;19.42;56.39;96846.28;1696004;81;21031;-56
2022/09/29 11:52:22;;;;;;;3.20;2.47;;;;;;;19.27;57.36;96854.05;1719967;81;20914;-56
2022/09/29 11:55:27;;;;;;;2.20;1.82;;;;;;;19.12;57.62;96855.87;1704788;81;21486;-56
2022/09/29 11:58:08;;;;;;;5.17;2.10;;;;;;;18.98;58.33;96859.19;1710482;81;21588;-56
2022/09/29 12:00:52;;;;;;;3.20;1.80;;;;;;;18.82;59.40;96857.27;1715365;81;21197;-57
2022/09/29 12:03:59;;;;;;;2.95;1.60;;;;;;;18.73;59.51;96866.28;1698408;81;21057;-57
2022/09/29 12:06:54;;;;;;;4.72;2.08;;;;;;;18.65;60.23;96874.70;1710770;81;21061;-55
2022/09/29 12:09:52;;;;;;;2.83;2.37;;;;;;;18.55;61.00;96869.36;1719114;81;20994;-56
2022/09/29 12:12:33;;;;;;;6.20;2.20;;;;;;;18.55;60.87;96858.51;1711074;81;21083;-60
2022/09/29 12:15:24;;;;;;;3.30;2.30;;;;;;;18.76;60.55;96851.98;1703422;81;21116;-59
2022/09/29 12:17:55;;;;;;;4.72;2.15;;;;;;;18.88;60.36;96853.09;1689642;83;21045;-55
2022/09/29 12:20:36;;;;;;;4.28;2.10;;;;;;;18.95;60.59;96861.31;1690619;83;20914;-57
2022/09/29 12:23:11;;;;;;;2.87;2.17;;;;;;;18.98;60.28;96857.84;1691660;83;21614;-55
2022/09/29 12:26:22;;;;;;;4.70;2.10;;;;;;;18.97;60.53;96863.08;1688134;83;21065;-56
2022/09/29 12:29:16;;;;;;;4.03;1.90;;;;;;;18.89;60.18;96865.49;1690879;83;21065;-56
2022/09/29 12:32:02;;;;;;;3.45;1.85;;;;;;;18.77;60.36;96857.59;1697895;81;20942;-56
2022/09/29 12:34:53;;;;;;;4.03;1.90;;;;;;;18.69;60.67;96867.39;1734134;79;21066;-55
2022/09/29 12:37:49;;;;;;;3.58;1.77;;;;;;;18.61;60.86;96871.94;1717659;81;21342;-57
2022/09/29 12:40:52;;;;;;;6.25;1.87;;;;;;;18.53;61.21;96867.59;1719155;81;21143;-59
2022/09/29 12:43:43;;;;;;;2.45;2.08;;;;;;;18.47;61.31;96863.63;1718306;81;22346;-57
2022/09/29 12:46:17;;;;;;;2.90;1.90;;;;;;;18.43;62.08;96864.12;1619935;85;21042;-60
2022/09/29 12:49:32;;;;;;;3.90;1.90;;;;;;;18.39;61.93;96874.16;1698007;81;20954;-59
2022/09/29 12:52:00;;;;;;;3.47;1.92;;;;;;;18.33;61.92;96874.25;1718367;81;21018;-57
2022/09/29 12:54:51;;;;;;;5.55;2.20;;;;;;;18.25;62.48;96875.31;1717178;81;21140;-60
2022/09/29 12:57:34;;;;;;;6.87;2.50;;;;;;;18.18;62.66;96880.64;1716983;81;21517;-57
2022/09/29 13:00:14;;;;;;;5.90;3.95;;;;;;;18.13;63.10;96875.53;1718078;81;20957;-57
2022/09/29 13:03:11;;;;;;;5.55;4.12;;;;;;;18.08;63.96;96882.05;1712351;81;21105;-57
2022/09/29 13:05:58;;;;;;;4.30;3.75;;;;;;;18.02;64.41;96882.13;1709316;81;20896;-58
2022/09/29 13:09:07;;;;;;;3.08;2.58;;;;;;;17.97;65.04;96881.68;1713629;81;21623;-54
2022/09/29 13:12:02;;;;;;;4.35;2.50;;;;;;;17.96;65.27;96884.16;1710639;81;21108;-58
2022/09/29 13:15:11;;;;;;;5.67;2.60;;;;;;;17.97;65.51;96889.80;1710964;83;20970;-59
2022/09/29 13:18:04;;;;;;;7.45;2.83;;;;;;;17.99;66.27;96886.16;1710617;83;21248;-57
2022/09/29 13:20:56;;;;;;;10.32;2.60;;;;;;;17.97;66.50;96877.02;1711761;83;21102;-56
2022/09/29 13:23:44;;;;;;;3.27;2.35;;;;;;;17.96;66.75;96881.45;1703712;82;21085;-57
2022/09/29 13:26:41;;;;;;;2.65;2.25;;;;;;;17.93;67.28;96882.17;1690119;83;21306;-56
2022/09/29 13:29:21;;;;;;;5.10;2.20;;;;;;;17.89;66.84;96882.70;1690965;83;21045;-57
2022/09/29 13:31:47;;;;;;;3.87;2.40;;;;;;;17.85;67.72;96885.94;1716203;81;21113;-57
2022/09/29 13:34:34;;;;;;;5.97;2.70;;;;;;;17.80;68.10;96895.72;1717605;81;21060;-59
2022/09/29 13:37:17;;;;;;;4.62;2.58;;;;;;;17.66;67.53;96903.80;1716117;81;21056;-57
2022/09/29 13:40:01;;;;;;;4.45;2.50;;;;;;;17.50;68.21;96907.77;1711526;81;21121;-57
